Parsa — TCA3179 — position and weather

sailwx.info

Track history (hours):
 
Tides and Currents Weather Stations Pressure Air Temp Water Temp Dewpoint Dewpoint Depression Visibility Wind Speed Wind Dir Waves Ship Positions

Parsa

Last reported at 2017-Dec-16 20:16 UTC. Time now 2017-Dec-17 04:24 UTC.
Position N 40°57' E 028°53'.

Length 115 m.

Type: Ship. MMSI: 271043873.

Date/timePositionNaut miles runAvg speedWind from/ knotsBaromVisibWave heightAir tempDewpointWater temp
2017-Dec-16 20:16N 40°57' E 028°53'0 0.1
2017-Dec-16 19:58N 40°57' E 028°53'0 0.0
2017-Dec-16 15:52N 40°57' E 028°53'0 0.0
2017-Dec-16 08:16N 40°57' E 028°53'0 0.0
2017-Dec-15 19:46N 40°57' E 028°53'3 7.9
2017-Dec-15 19:23N 40°54' E 028°53'19711.7
2017-Dec-15 02:30N 39°46' E 024°51'2412.2
2017-Dec-15 00:34N 39°49' E 024°20'212.0
2017-Dec-15 00:25N 39°49' E 024°18'32 0.8
2017-Dec-13 09:31N 39°49' E 023°37'1512.4
2017-Dec-13 08:16N 39°43' E 023°55'612.5
2017-Dec-13 07:50N 39°41' E 024°02'412.8
2017-Dec-13 07:31N 39°39' E 024°07'612.3
2017-Dec-13 07:01N 39°37' E 024°14'9111.6
2017-Dec-12 23:07N 38°60' E 026°02'  
2017-Dec-10 14:10N 40°56' E 028°57'210.6
2017-Dec-10 14:00N 40°55' E 028°59'610.7
2017-Dec-10 13:28N 40°50' E 029°02'510.2
2017-Dec-10 13:00N 40°45' E 029°02'1 1.8
2017-Dec-10 12:30N 40°46' E 029°01'2 4.8
2017-Dec-10 12:01N 40°48' E 029°02'1 1.7
2017-Dec-10 11:29N 40°49' E 029°02'1 1.3
2017-Dec-10 10:59N 40°49' E 029°02'1 1.2
2017-Dec-10 10:29N 40°48' E 029°01'1 1.1
2017-Dec-10 10:00N 40°48' E 029°00'1 1.2
2017-Dec-10 09:30N 40°48' E 028°60'1 1.5
2017-Dec-10 09:00N 40°48' E 028°59'1 2.1
2017-Dec-10 08:30N 40°48' E 028°57'1 1.6
2017-Dec-10 07:45N 40°46' E 028°57'1 1.9
2017-Dec-10 07:28N 40°46' E 028°57'2 3.6
2017-Dec-10 06:56N 40°47' E 028°58'4 8.5
2017-Dec-10 06:30N 40°50' E 029°01'4 8.8
2017-Dec-10 06:01N 40°48' E 029°06'510.3
2017-Dec-10 05:30N 40°46' E 029°12'510.3
2017-Dec-10 05:00N 40°45' E 029°19'5 8.6
2017-Dec-10 04:28N 40°45' E 029°25'  
Track history (hours):
 
Tides and Currents Weather Stations Pressure Air Temp Water Temp Dewpoint Dewpoint Depression Visibility Wind Speed Wind Dir Waves Ship Positions

Parsa

Last reported at 2017-Dec-16 20:16 UTC. Time now 2017-Dec-17 04:24 UTC.
Position N 40°57' E 028°53'.

Length 115 m.

Type: Ship. MMSI: 271043873.

Date/timePositionNaut miles runAvg speedWind from/ knotsBaromVisibWave heightAir tempDewpointWater temp
2017-Dec-16 20:16N 40°57' E 028°53'0 0.1
2017-Dec-16 19:58N 40°57' E 028°53'0 0.0
2017-Dec-16 15:52N 40°57' E 028°53'0 0.0
2017-Dec-16 08:16N 40°57' E 028°53'0 0.0
2017-Dec-15 19:46N 40°57' E 028°53'3 7.9
2017-Dec-15 19:23N 40°54' E 028°53'19711.7
2017-Dec-15 02:30N 39°46' E 024°51'2412.2
2017-Dec-15 00:34N 39°49' E 024°20'212.0
2017-Dec-15 00:25N 39°49' E 024°18'32 0.8
2017-Dec-13 09:31N 39°49' E 023°37'1512.4
2017-Dec-13 08:16N 39°43' E 023°55'612.5
2017-Dec-13 07:50N 39°41' E 024°02'412.8
2017-Dec-13 07:31N 39°39' E 024°07'612.3
2017-Dec-13 07:01N 39°37' E 024°14'9111.6
2017-Dec-12 23:07N 38°60' E 026°02'  
2017-Dec-10 14:10N 40°56' E 028°57'210.6
2017-Dec-10 14:00N 40°55' E 028°59'610.7
2017-Dec-10 13:28N 40°50' E 029°02'510.2
2017-Dec-10 13:00N 40°45' E 029°02'1 1.8
2017-Dec-10 12:30N 40°46' E 029°01'2 4.8
2017-Dec-10 12:01N 40°48' E 029°02'1 1.7
2017-Dec-10 11:29N 40°49' E 029°02'1 1.3
2017-Dec-10 10:59N 40°49' E 029°02'1 1.2
2017-Dec-10 10:29N 40°48' E 029°01'1 1.1
2017-Dec-10 10:00N 40°48' E 029°00'1 1.2
2017-Dec-10 09:30N 40°48' E 028°60'1 1.5
2017-Dec-10 09:00N 40°48' E 028°59'1 2.1
2017-Dec-10 08:30N 40°48' E 028°57'1 1.6
2017-Dec-10 07:45N 40°46' E 028°57'1 1.9
2017-Dec-10 07:28N 40°46' E 028°57'2 3.6
2017-Dec-10 06:56N 40°47' E 028°58'4 8.5
2017-Dec-10 06:30N 40°50' E 029°01'4 8.8
2017-Dec-10 06:01N 40°48' E 029°06'510.3
2017-Dec-10 05:30N 40°46' E 029°12'510.3
2017-Dec-10 05:00N 40°45' E 029°19'5 8.6
2017-Dec-10 04:28N 40°45' E 029°25'  

Dump ship's entire track history